createdAt,value
2018-09-01T00:00:22.403Z,13.63
2018-09-01T00:01:22.326Z,13.65
2018-09-01T00:02:22.215Z,13.62
2018-09-01T00:03:22.123Z,13.69
2018-09-01T00:04:22.031Z,13.71
2018-09-01T00:05:22.038Z,13.65
2018-09-01T00:06:21.848Z,13.68
2018-09-01T00:07:21.787Z,13.69
2018-09-01T00:08:21.664Z,13.69
2018-09-01T00:09:21.571Z,13.69
2018-09-01T00:10:21.479Z,13.69
2018-09-01T00:11:21.442Z,13.68
2018-09-01T00:12:21.459Z,13.63
2018-09-01T00:13:21.204Z,13.61
2018-09-01T00:14:21.111Z,13.66
2018-09-01T00:15:21.018Z,13.62
2018-09-01T00:16:20.929Z,13.55
2018-09-01T00:17:20.848Z,13.55
2018-09-01T00:18:20.741Z,13.59
2018-09-01T00:19:20.752Z,13.57
2018-09-01T00:20:20.557Z,13.57
2018-09-01T00:21:20.467Z,13.59
2018-09-01T00:22:20.391Z,13.54
2018-09-01T00:23:20.279Z,13.59
2018-09-01T00:24:20.187Z,13.57
2018-09-01T00:25:20.097Z,13.65
2018-09-01T00:26:20.125Z,13.63
2018-09-01T00:27:19.926Z,13.65
2018-09-01T00:28:19.820Z,13.62
2018-09-01T00:29:19.725Z,13.62
2018-09-01T00:30:19.634Z,13.57
2018-09-01T00:31:19.541Z,13.51
2018-09-01T00:32:19.466Z,13.59
2018-09-01T00:33:19.457Z,13.59
2018-09-01T00:34:19.266Z,13.54
2018-09-01T00:35:19.175Z,13.57
2018-09-01T00:36:19.084Z,13.54
2018-09-01T00:37:19.049Z,13.48
2018-09-01T00:38:18.896Z,13.55
2018-09-01T00:39:18.804Z,13.55
2018-09-01T00:40:18.717Z,13.62
2018-09-01T00:41:18.621Z,13.51
2018-09-01T00:42:18.544Z,13.47
2018-09-01T00:43:18.438Z,13.43
2018-09-01T00:44:18.346Z,13.48
2018-09-01T00:45:18.253Z,13.47
2018-09-01T00:46:18.158Z,13.47
2018-09-01T00:47:18.085Z,13.35
2018-09-01T00:48:17.975Z,13.38
2018-09-01T00:49:17.881Z,13.38
2018-09-01T00:50:17.791Z,13.31
2018-09-01T00:51:17.697Z,13.22
2018-09-01T00:52:17.622Z,13.27
2018-09-01T00:53:17.512Z,13.22
2018-09-01T00:54:17.422Z,13.25
2018-09-01T00:55:17.331Z,13.14
2018-09-01T00:56:17.235Z,13.13
2018-09-01T00:57:17.162Z,13.12
2018-09-01T00:58:17.056Z,12.95
2018-09-01T00:59:16.960Z,13.06
2018-09-01T01:00:16.866Z,13.06
2018-09-01T01:01:16.777Z,12.99
2018-09-01T01:02:16.699Z,13.04
2018-09-01T01:03:16.591Z,12.98
2018-09-01T01:04:16.502Z,12.99
2018-09-01T01:05:16.405Z,12.94
2018-09-01T01:06:16.329Z,12.91
2018-09-01T01:07:16.240Z,12.89
2018-09-01T01:08:16.132Z,12.80
2018-09-01T01:09:16.034Z,12.77
2018-09-01T01:10:15.946Z,12.69
2018-09-01T01:11:15.852Z,12.70
2018-09-01T01:12:15.775Z,12.67
2018-09-01T01:13:15.665Z,12.66
2018-09-01T01:14:15.572Z,12.69
2018-09-01T01:15:15.481Z,12.67
2018-09-01T01:16:15.391Z,12.80
2018-09-01T01:17:15.313Z,12.63
2018-09-01T01:18:15.204Z,12.71
2018-09-01T01:19:15.109Z,12.63
2018-09-01T01:20:15.020Z,12.77
2018-09-01T01:21:14.926Z,12.69
2018-09-01T01:22:15.249Z,12.84
2018-09-01T01:23:14.741Z,12.76
2018-09-01T01:24:14.650Z,12.77
2018-09-01T01:25:14.553Z,12.63
2018-09-01T01:26:14.463Z,12.84
2018-09-01T01:27:14.388Z,12.67
2018-09-01T01:28:14.278Z,12.70
2018-09-01T01:29:14.184Z,12.69
2018-09-01T01:30:14.091Z,12.66
2018-09-01T01:31:13.999Z,12.59
2018-09-01T01:32:13.922Z,12.58
2018-09-01T01:33:13.815Z,12.58
2018-09-01T01:34:13.722Z,12.59
2018-09-01T01:35:13.632Z,12.48
2018-09-01T01:36:13.538Z,12.46
2018-09-01T01:37:13.461Z,12.38
2018-09-01T01:38:13.350Z,12.36
2018-09-01T01:39:13.257Z,12.38
2018-09-01T01:40:13.164Z,12.29
2018-09-01T01:41:13.071Z,12.33
2018-09-01T01:42:12.995Z,12.29
2018-09-01T01:43:12.887Z,12.29
2018-09-01T01:44:12.798Z,12.25
2018-09-01T01:45:12.701Z,12.34
2018-09-01T01:46:12.605Z,12.23
2018-09-01T01:47:12.530Z,12.29
2018-09-01T01:48:12.424Z,12.21
2018-09-01T01:49:12.328Z,12.13
2018-09-01T01:50:12.239Z,12.11
2018-09-01T01:51:12.141Z,12.15
2018-09-01T01:52:12.053Z,12.15
2018-09-01T01:53:11.972Z,12.13
2018-09-01T01:54:11.865Z,12.13
2018-09-01T01:55:11.772Z,12.11
2018-09-01T01:56:11.678Z,12.15
2018-09-01T01:57:11.590Z,12.13
2018-09-01T01:58:11.509Z,12.18
2018-09-01T01:59:11.398Z,12.11
2018-09-01T02:00:11.310Z,12.16
2018-09-01T02:01:11.211Z,12.18
2018-09-01T02:02:11.119Z,12.15
2018-09-01T02:03:11.044Z,12.15
2018-09-01T02:04:10.935Z,12.16
2018-09-01T02:05:10.839Z,12.00
2018-09-01T02:06:10.752Z,12.04
2018-09-01T02:07:10.655Z,12.03
2018-09-01T02:08:10.590Z,11.97
2018-09-01T02:09:10.468Z,12.13
2018-09-01T02:10:10.373Z,12.15
2018-09-01T02:11:10.382Z,12.13
2018-09-01T02:12:10.191Z,12.11
2018-09-01T02:13:10.111Z,12.25
2018-09-01T02:14:10.001Z,12.33
2018-09-01T02:15:09.910Z,12.23
2018-09-01T02:16:09.814Z,12.31
2018-09-01T02:17:09.721Z,12.33
2018-09-01T02:18:09.734Z,12.31
2018-09-01T02:19:09.538Z,12.40
2018-09-01T02:20:09.445Z,12.38
2018-09-01T02:21:09.349Z,12.26
2018-09-01T02:22:09.257Z,12.26
2018-09-01T02:23:09.181Z,12.37
2018-09-01T02:24:09.075Z,12.36
2018-09-01T02:25:09.075Z,12.36
2018-09-01T02:26:08.883Z,12.23
2018-09-01T02:27:08.797Z,12.38
2018-09-01T02:28:08.713Z,12.41
2018-09-01T02:29:08.607Z,12.40
2018-09-01T02:30:08.510Z,12.30
2018-09-01T02:31:08.418Z,12.26
2018-09-01T02:32:08.426Z,12.25
2018-09-01T02:33:08.250Z,12.25
2018-09-01T02:34:08.139Z,12.23
2018-09-01T02:35:08.049Z,12.26
2018-09-01T02:36:07.953Z,12.25
2018-09-01T02:37:07.857Z,12.25
2018-09-01T02:38:07.801Z,12.26
2018-09-01T02:39:07.787Z,12.23
2018-09-01T02:40:07.580Z,12.23
2018-09-01T02:41:07.486Z,12.26
2018-09-01T02:42:07.392Z,12.25
2018-09-01T02:43:07.315Z,12.34
2018-09-01T02:44:07.205Z,12.34
2018-09-01T02:45:07.115Z,12.31
2018-09-01T02:46:07.126Z,12.26
2018-09-01T02:47:06.926Z,12.31
2018-09-01T02:48:06.863Z,12.29
2018-09-01T02:49:06.743Z,12.30
2018-09-01T02:50:06.645Z,12.25
2018-09-01T02:51:06.554Z,12.16
2018-09-01T02:52:06.460Z,12.23
2018-09-01T02:53:06.482Z,12.22
2018-09-01T02:54:06.270Z,12.25
2018-09-01T02:55:06.182Z,12.11
2018-09-01T02:56:06.088Z,12.16
2018-09-01T02:57:05.995Z,12.25
2018-09-01T02:58:05.919Z,12.29
2018-09-01T02:59:05.809Z,12.29
2018-09-01T03:00:05.814Z,12.19
2018-09-01T03:01:05.624Z,12.25
2018-09-01T03:02:05.534Z,12.26
2018-09-01T03:03:05.450Z,12.25
2018-09-01T03:04:05.345Z,12.25
2018-09-01T03:05:05.249Z,12.26
2018-09-01T03:06:05.153Z,12.25
2018-09-01T03:07:05.159Z,12.25
2018-09-01T03:08:04.983Z,12.23
2018-09-01T03:09:04.877Z,12.29
2018-09-01T03:10:04.783Z,12.23
2018-09-01T03:11:04.689Z,12.25
2018-09-01T03:12:04.597Z,12.38
2018-09-01T03:13:04.519Z,12.25
2018-09-01T03:14:04.507Z,12.25
2018-09-01T03:15:04.318Z,12.25
2018-09-01T03:16:04.219Z,12.25
2018-09-01T03:17:04.127Z,12.29
2018-09-01T03:18:04.053Z,12.18
2018-09-01T03:19:03.946Z,12.15
2018-09-01T03:20:03.853Z,12.22
2018-09-01T03:21:03.856Z,12.15
2018-09-01T03:22:03.666Z,12.13
2018-09-01T03:23:03.584Z,12.11
2018-09-01T03:24:03.475Z,12.00
2018-09-01T03:25:03.379Z,11.96
2018-09-01T03:26:03.286Z,12.00
2018-09-01T03:27:03.198Z,12.03
2018-09-01T03:28:03.236Z,12.01
2018-09-01T03:29:03.007Z,11.94
2018-09-01T03:30:02.917Z,11.88
2018-09-01T03:31:02.821Z,11.82
2018-09-01T03:32:02.734Z,11.94
2018-09-01T03:33:02.652Z,11.77
2018-09-01T03:34:02.540Z,11.82
2018-09-01T03:35:02.546Z,11.78
2018-09-01T03:36:02.355Z,11.75
2018-09-01T03:37:02.259Z,11.78
2018-09-01T03:38:02.169Z,11.70
2018-09-01T03:39:02.091Z,11.74
2018-09-01T03:40:01.980Z,11.72
2018-09-01T03:41:01.887Z,11.77
2018-09-01T03:42:01.796Z,11.79
2018-09-01T03:43:01.701Z,11.72
2018-09-01T03:44:01.622Z,11.78
2018-09-01T03:45:01.514Z,11.78
2018-09-01T03:46:01.424Z,11.77
2018-09-01T03:47:01.327Z,11.79
2018-09-01T03:48:01.238Z,11.70
2018-09-01T03:49:01.158Z,11.66
2018-09-01T03:50:01.047Z,11.64
2018-09-01T03:51:00.962Z,11.66
2018-09-01T03:52:00.861Z,11.69
2018-09-01T03:53:00.768Z,11.70
2018-09-01T03:54:00.690Z,11.72
2018-09-01T03:55:00.580Z,11.75
2018-09-01T03:56:00.485Z,11.72
2018-09-01T03:57:00.391Z,11.79
2018-09-01T03:58:00.299Z,11.70
2018-09-01T03:59:00.220Z,11.74
2018-09-01T04:00:00.111Z,11.78
2018-09-01T04:01:00.015Z,11.72
2018-09-01T04:01:59.922Z,11.72
2018-09-01T04:02:59.830Z,11.79
2018-09-01T04:03:59.754Z,11.77
2018-09-01T04:04:59.641Z,11.72
2018-09-01T04:05:59.547Z,11.75
2018-09-01T04:06:59.456Z,11.77
2018-09-01T04:07:59.366Z,11.74
2018-09-01T04:08:59.307Z,11.78
2018-09-01T04:09:59.177Z,11.81
2018-09-01T04:10:59.081Z,11.78
2018-09-01T04:11:58.990Z,11.79
2018-09-01T04:12:58.894Z,11.69
2018-09-01T04:13:58.817Z,11.74
2018-09-01T04:14:58.708Z,11.69
2018-09-01T04:15:58.618Z,11.75
2018-09-01T04:16:58.520Z,11.70
2018-09-01T04:17:58.427Z,11.78
2018-09-01T04:18:58.348Z,11.72
2018-09-01T04:19:58.239Z,11.78
2018-09-01T04:20:58.146Z,11.70
2018-09-01T04:21:58.053Z,11.74
2018-09-01T04:22:57.958Z,11.75
2018-09-01T04:23:57.885Z,11.75
2018-09-01T04:24:57.773Z,11.78
2018-09-01T04:25:57.679Z,11.72
2018-09-01T04:26:57.585Z,11.78
2018-09-01T04:27:57.492Z,11.69
2018-09-01T04:28:57.418Z,11.67
2018-09-01T04:29:57.304Z,11.72
2018-09-01T04:30:57.215Z,11.67
2018-09-01T04:31:57.133Z,11.79
2018-09-01T04:32:57.022Z,11.72
2018-09-01T04:33:56.947Z,11.72
2018-09-01T04:34:56.838Z,11.69
2018-09-01T04:35:56.741Z,11.72
2018-09-01T04:36:56.646Z,11.75
2018-09-01T04:37:56.558Z,11.77
2018-09-01T04:38:56.479Z,11.70
2018-09-01T04:39:56.368Z,11.69
2018-09-01T04:40:56.277Z,11.72
2018-09-01T04:41:56.178Z,11.75
2018-09-01T04:42:56.088Z,11.60
2018-09-01T04:43:56.009Z,11.69
2018-09-01T04:44:55.899Z,11.72
2018-09-01T04:45:55.805Z,11.72
2018-09-01T04:46:55.788Z,11.60
2018-09-01T04:47:55.620Z,11.67
2018-09-01T04:48:55.547Z,11.72
2018-09-01T04:49:55.431Z,11.81
2018-09-01T04:50:55.337Z,11.74
2018-09-01T04:51:55.244Z,11.75
2018-09-01T04:52:55.153Z,11.82
2018-09-01T04:53:55.072Z,11.75
2018-09-01T04:54:54.964Z,11.81
2018-09-01T04:55:54.872Z,11.88
2018-09-01T04:56:54.778Z,11.96
2018-09-01T04:57:54.784Z,11.94
2018-09-01T04:58:54.607Z,11.94
2018-09-01T04:59:54.497Z,12.03
2018-09-01T05:00:54.449Z,11.94
2018-09-01T05:01:54.314Z,12.00
2018-09-01T05:02:54.217Z,12.00
2018-09-01T05:03:54.139Z,12.11
2018-09-01T05:04:54.133Z,11.98
2018-09-01T05:05:53.934Z,12.08
2018-09-01T05:06:53.841Z,12.11
2018-09-01T05:07:53.752Z,12.16
2018-09-01T05:08:53.672Z,12.13
2018-09-01T05:09:53.588Z,12.12
2018-09-01T05:10:53.467Z,12.31
2018-09-01T05:11:53.475Z,12.26
2018-09-01T05:12:53.285Z,12.26
2018-09-01T05:13:53.205Z,12.36
2018-09-01T05:14:53.094Z,12.23
2018-09-01T05:15:53.001Z,12.38
2018-09-01T05:16:52.910Z,12.41
2018-09-01T05:17:52.816Z,12.40
2018-09-01T05:18:52.838Z,12.40
2018-09-01T05:19:52.629Z,12.41
2018-09-01T05:20:52.536Z,12.33
2018-09-01T05:21:52.442Z,12.40
2018-09-01T05:22:52.349Z,12.38
2018-09-01T05:23:52.312Z,12.36
2018-09-01T05:24:52.180Z,12.40
2018-09-01T05:25:52.184Z,12.36
2018-09-01T05:26:51.976Z,12.36
2018-09-01T05:27:51.884Z,12.40
2018-09-01T05:28:51.792Z,12.40
2018-09-01T05:29:51.735Z,12.37
2018-09-01T05:30:51.603Z,12.40
2018-09-01T05:31:51.510Z,12.40
2018-09-01T05:32:51.520Z,12.38
2018-09-01T05:33:51.330Z,12.36
2018-09-01T05:34:51.251Z,12.38
2018-09-01T05:35:51.141Z,12.40
2018-09-01T05:36:51.042Z,12.36
2018-09-01T05:37:50.951Z,12.23
2018-09-01T05:38:50.859Z,12.36
2018-09-01T05:39:50.872Z,12.29
2018-09-01T05:40:50.675Z,12.36
2018-09-01T05:41:50.580Z,12.33
2018-09-01T05:42:50.487Z,12.33
2018-09-01T05:43:50.456Z,12.25
2018-09-01T05:44:50.320Z,12.25
2018-09-01T05:45:50.208Z,12.25
2018-09-01T05:46:50.212Z,12.38
2018-09-01T05:47:50.020Z,12.38
2018-09-01T05:48:49.925Z,12.34
2018-09-01T05:49:49.859Z,12.38
2018-09-01T05:50:49.769Z,12.38
2018-09-01T05:51:49.650Z,12.38
2018-09-01T05:52:49.553Z,12.33
2018-09-01T05:53:49.563Z,12.41
2018-09-01T05:54:49.382Z,12.40
2018-09-01T05:55:49.275Z,12.38
2018-09-01T05:56:49.181Z,12.46
2018-09-01T05:57:49.090Z,12.41
2018-09-01T05:58:48.999Z,12.44
2018-09-01T05:59:48.918Z,12.51
2018-09-01T06:00:48.919Z,12.56
2018-09-01T06:01:48.723Z,12.59
2018-09-01T06:02:48.626Z,12.66
2018-09-01T06:03:48.533Z,12.71
2018-09-01T06:04:48.454Z,12.80
2018-09-01T06:05:48.406Z,12.89
2018-09-01T06:06:48.254Z,12.79
2018-09-01T06:07:48.163Z,12.91
2018-09-01T06:08:48.069Z,12.94
2018-09-01T06:09:47.987Z,12.91
2018-09-01T06:10:47.884Z,12.92
2018-09-01T06:11:47.788Z,12.94
2018-09-01T06:12:47.697Z,12.95
2018-09-01T06:13:47.604Z,12.98
2018-09-01T06:14:47.634Z,13.12
2018-09-01T06:15:47.420Z,13.03
2018-09-01T06:16:47.332Z,13.25
2018-09-01T06:17:47.338Z,13.36
2018-09-01T06:18:47.141Z,13.36
2018-09-01T06:19:47.065Z,13.46
2018-09-01T06:20:47.088Z,13.51
2018-09-01T06:21:46.866Z,13.55
2018-09-01T06:22:46.771Z,13.65
2018-09-01T06:23:46.684Z,13.61
2018-09-01T06:24:46.664Z,13.72
2018-09-01T06:25:46.495Z,13.83
2018-09-01T06:26:46.405Z,13.83
2018-09-01T06:27:46.312Z,14.01
2018-09-01T06:28:46.218Z,14.02
2018-09-01T06:29:46.145Z,13.96
2018-09-01T06:30:46.034Z,14.08
2018-09-01T06:31:45.943Z,13.94
2018-09-01T06:32:45.902Z,13.99
2018-09-01T06:33:45.760Z,13.98
2018-09-01T06:34:45.688Z,14.01
2018-09-01T06:35:45.575Z,14.08
2018-09-01T06:36:45.483Z,14.13
2018-09-01T06:37:45.445Z,14.11
2018-09-01T06:38:45.303Z,14.20
2018-09-01T06:39:45.229Z,14.23
2018-09-01T06:40:45.116Z,14.21
2018-09-01T06:41:45.028Z,14.08
2018-09-01T06:42:44.933Z,14.09
2018-09-01T06:43:44.845Z,14.16
2018-09-01T06:44:44.766Z,14.19
2018-09-01T06:45:44.660Z,14.11
2018-09-01T06:46:44.571Z,14.12
2018-09-01T06:47:44.477Z,14.12
2018-09-01T06:48:44.387Z,14.11
2018-09-01T06:49:44.312Z,14.06
2018-09-01T06:50:44.200Z,14.11
2018-09-01T06:51:44.112Z,14.09
2018-09-01T06:52:44.019Z,14.19
2018-09-01T06:53:43.928Z,14.13
2018-09-01T06:54:43.855Z,14.23
2018-09-01T06:55:43.746Z,14.20
2018-09-01T06:56:43.656Z,14.20
2018-09-01T06:57:43.565Z,14.44
2018-09-01T06:58:43.471Z,14.60
2018-09-01T06:59:43.399Z,14.72
2018-09-01T07:00:43.289Z,14.69
2018-09-01T07:01:43.196Z,14.74
2018-09-01T07:02:43.123Z,14.67
2018-09-01T07:03:43.014Z,14.79
2018-09-01T07:04:42.938Z,14.79
2018-09-01T07:05:42.833Z,14.90
2018-09-01T07:06:42.742Z,15.00
2018-09-01T07:07:42.652Z,15.12
2018-09-01T07:08:42.614Z,15.13
2018-09-01T07:09:42.483Z,15.16
2018-09-01T07:10:42.380Z,15.22
2018-09-01T07:11:42.289Z,15.25
2018-09-01T07:12:42.206Z,15.20
2018-09-01T07:13:42.104Z,15.34
2018-09-01T07:14:42.017Z,15.20
2018-09-01T07:15:41.942Z,15.38
2018-09-01T07:16:41.833Z,15.38
2018-09-01T07:17:41.739Z,15.31
2018-09-01T07:18:41.652Z,15.37
2018-09-01T07:19:41.560Z,15.35
2018-09-01T07:20:41.489Z,15.37
2018-09-01T07:21:41.382Z,15.34
2018-09-01T07:22:41.312Z,15.46
2018-09-01T07:23:41.195Z,15.34
2018-09-01T07:24:41.110Z,15.37
2018-09-01T07:25:41.034Z,15.30
2018-09-01T07:26:40.925Z,15.19
2018-09-01T07:27:40.838Z,15.18
2018-09-01T07:28:40.745Z,15.18
2018-09-01T07:29:40.670Z,15.18
2018-09-01T07:30:40.692Z,15.20
2018-09-01T07:31:40.477Z,15.13
2018-09-01T07:32:40.384Z,14.97
2018-09-01T07:33:40.296Z,14.95
2018-09-01T07:34:40.203Z,14.95
2018-09-01T07:35:40.128Z,15.09
2018-09-01T07:36:40.020Z,15.05
2018-09-01T07:37:39.932Z,15.00
2018-09-01T07:38:39.842Z,15.05
2018-09-01T07:39:39.756Z,15.12
2018-09-01T07:40:39.673Z,15.16
2018-09-01T07:41:39.566Z,15.22
2018-09-01T07:42:39.477Z,15.20
2018-09-01T07:43:39.395Z,15.19
2018-09-01T07:44:39.294Z,15.35
2018-09-01T07:45:39.219Z,15.38
2018-09-01T07:46:39.116Z,15.34
2018-09-01T07:47:39.025Z,15.33
2018-09-01T07:48:38.932Z,15.15
2018-09-01T07:49:38.844Z,15.20
2018-09-01T07:50:38.772Z,15.13
2018-09-01T07:51:38.672Z,15.16
2018-09-01T07:52:38.577Z,15.04
2018-09-01T07:53:38.496Z,15.09
2018-09-01T07:54:38.419Z,15.19
2018-09-01T07:55:38.314Z,15.00
2018-09-01T07:56:38.209Z,15.05
2018-09-01T07:57:38.127Z,14.95
2018-09-01T07:58:38.028Z,15.13
2018-09-01T07:59:38.046Z,15.09
2018-09-01T08:00:37.864Z,15.09
2018-09-01T08:01:37.752Z,15.19
2018-09-01T08:02:37.668Z,15.20
2018-09-01T08:03:37.571Z,15.12
2018-09-01T08:04:37.480Z,15.11
2018-09-01T08:05:37.407Z,15.15
2018-09-01T08:06:37.401Z,15.11
2018-09-01T08:07:37.210Z,15.12
2018-09-01T08:08:37.118Z,15.16
2018-09-01T08:09:37.028Z,15.19
2018-09-01T08:10:36.957Z,15.27
2018-09-01T08:11:36.847Z,15.37
2018-09-01T08:12:36.754Z,15.35
2018-09-01T08:13:36.773Z,15.37
2018-09-01T08:14:36.623Z,15.41
2018-09-01T08:15:36.502Z,15.41
2018-09-01T08:16:36.394Z,15.43
2018-09-01T08:17:36.298Z,15.34
2018-09-01T08:18:36.209Z,15.37
2018-09-01T08:19:36.122Z,15.18
2018-09-01T08:20:36.149Z,15.16
2018-09-01T08:21:35.937Z,15.20
2018-09-01T08:22:35.845Z,15.20
2018-09-01T08:23:35.757Z,15.40
2018-09-01T08:24:35.674Z,15.43
2018-09-01T08:25:35.592Z,15.48
2018-09-01T08:26:35.486Z,15.49
2018-09-01T08:27:35.501Z,15.44
2018-09-01T08:28:35.305Z,15.48
2018-09-01T08:29:35.212Z,15.55
2018-09-01T08:30:35.141Z,15.60
2018-09-01T08:31:35.032Z,15.64
2018-09-01T08:32:34.942Z,15.64
2018-09-01T08:33:34.898Z,15.84
2018-09-01T08:34:34.864Z,15.77
2018-09-01T08:35:34.685Z,15.84
2018-09-01T08:36:34.577Z,15.81
2018-09-01T08:37:34.489Z,15.85
2018-09-01T08:38:34.398Z,15.88
2018-09-01T08:39:34.307Z,16.04
2018-09-01T08:40:34.233Z,16.17
2018-09-01T08:41:34.126Z,16.22
2018-09-01T08:42:34.036Z,16.30
2018-09-01T08:43:33.945Z,16.27
2018-09-01T08:44:33.856Z,16.37
2018-09-01T08:45:33.803Z,16.45
2018-09-01T08:46:33.774Z,16.44
2018-09-01T08:47:33.582Z,16.57
2018-09-01T08:48:33.492Z,16.84
2018-09-01T08:49:33.404Z,16.96
2018-09-01T08:50:33.331Z,17.20
2018-09-01T08:51:33.226Z,17.21
2018-09-01T08:52:33.132Z,17.25
2018-09-01T08:53:33.042Z,17.10
2018-09-01T08:54:32.956Z,17.25
2018-09-01T08:55:32.885Z,17.20
2018-09-01T08:56:32.801Z,17.07
2018-09-01T08:57:32.687Z,17.05
2018-09-01T08:58:32.600Z,17.05
2018-09-01T08:59:32.508Z,17.05
2018-09-01T09:00:32.525Z,17.27
2018-09-01T09:01:32.345Z,17.28
2018-09-01T09:02:32.238Z,17.39
2018-09-01T09:03:32.158Z,17.33
2018-09-01T09:04:32.061Z,17.47
2018-09-01T09:05:31.976Z,17.45
2018-09-01T09:06:31.899Z,17.30
2018-09-01T09:07:31.901Z,17.03
2018-09-01T09:08:31.703Z,17.25
2018-09-01T09:09:31.615Z,17.27
2018-09-01T09:10:31.527Z,17.28
2018-09-01T09:11:31.464Z,17.22
2018-09-01T09:12:31.349Z,17.05
2018-09-01T09:13:31.257Z,17.07
2018-09-01T09:14:31.171Z,17.06
2018-09-01T09:15:31.083Z,16.95
2018-09-01T09:16:31.032Z,16.88
2018-09-01T09:17:30.917Z,16.96
2018-09-01T09:18:30.829Z,16.95
2018-09-01T09:19:30.721Z,16.95
2018-09-01T09:20:30.639Z,16.99
2018-09-01T09:21:30.564Z,16.92
2018-09-01T09:22:30.457Z,16.85
2018-09-01T09:23:30.370Z,16.72
2018-09-01T09:24:30.281Z,16.51
2018-09-01T09:25:30.189Z,16.48
2018-09-01T09:26:30.118Z,16.37
2018-09-01T09:27:30.137Z,16.32
2018-09-01T09:28:29.922Z,16.48
2018-09-01T09:29:29.833Z,16.26
2018-09-01T09:30:29.745Z,16.22
2018-09-01T09:31:29.673Z,16.01
2018-09-01T09:32:29.568Z,15.88
2018-09-01T09:33:29.478Z,15.85
2018-09-01T09:34:29.436Z,15.77
2018-09-01T09:35:29.300Z,15.73
2018-09-01T09:36:29.225Z,15.80
2018-09-01T09:37:29.165Z,15.84
2018-09-01T09:38:29.031Z,15.89
2018-09-01T09:39:28.944Z,15.92
2018-09-01T09:40:28.848Z,15.89
2018-09-01T09:41:28.773Z,15.88
2018-09-01T09:42:28.671Z,15.89
2018-09-01T09:43:28.582Z,15.89
2018-09-01T09:44:28.489Z,15.85
2018-09-01T09:45:28.400Z,15.73
2018-09-01T09:46:28.325Z,15.68
2018-09-01T09:47:28.321Z,15.64
2018-09-01T09:48:28.128Z,15.60
2018-09-01T09:49:28.037Z,15.60
2018-09-01T09:50:27.952Z,15.58
2018-09-01T09:51:27.876Z,15.64
2018-09-01T09:52:27.766Z,15.68
2018-09-01T09:53:27.678Z,15.62
2018-09-01T09:54:27.688Z,15.67
2018-09-01T09:55:27.499Z,15.64
2018-09-01T09:56:27.426Z,15.60
2018-09-01T09:57:27.318Z,15.64
2018-09-01T09:58:27.231Z,15.59
2018-09-01T09:59:27.159Z,15.67
2018-09-01T10:00:27.045Z,15.58
2018-09-01T10:01:27.072Z,15.70
2018-09-01T10:02:26.926Z,15.71
2018-09-01T10:03:26.778Z,15.70
2018-09-01T10:04:26.682Z,15.70
2018-09-01T10:05:26.612Z,15.73
2018-09-01T10:06:26.517Z,15.68
2018-09-01T10:07:26.411Z,15.73
2018-09-01T10:08:26.416Z,15.73
2018-09-01T10:09:26.232Z,15.71
2018-09-01T10:10:26.140Z,15.73
2018-09-01T10:11:26.069Z,15.66
2018-09-01T10:12:25.957Z,15.66
2018-09-01T10:13:25.867Z,15.67
2018-09-01T10:14:25.781Z,15.64
2018-09-01T10:15:25.789Z,15.60
2018-09-01T10:16:25.612Z,15.51
2018-09-01T10:17:25.511Z,15.37
2018-09-01T10:18:25.415Z,15.33
2018-09-01T10:19:25.325Z,15.25
2018-09-01T10:20:25.277Z,15.19
2018-09-01T10:21:25.161Z,15.19
2018-09-01T10:22:25.158Z,15.22
2018-09-01T10:23:24.961Z,15.16
2018-09-01T10:24:24.871Z,15.07
2018-09-01T10:25:24.783Z,15.03
2018-09-01T10:26:24.707Z,15.07
2018-09-01T10:27:24.612Z,15.16
2018-09-01T10:28:24.510Z,15.19
2018-09-01T10:29:24.519Z,15.19
2018-09-01T10:30:24.331Z,15.11
2018-09-01T10:31:24.253Z,15.12
2018-09-01T10:32:24.149Z,15.12
2018-09-01T10:33:24.056Z,15.04
2018-09-01T10:34:23.964Z,15.12
2018-09-01T10:35:23.872Z,15.11
2018-09-01T10:36:23.898Z,14.97
2018-09-01T10:37:23.691Z,14.85
2018-09-01T10:38:23.625Z,14.90
2018-09-01T10:39:23.508Z,14.87
2018-09-01T10:40:23.431Z,15.00
2018-09-01T10:41:23.345Z,14.94
2018-09-01T10:42:23.236Z,15.00
2018-09-01T10:43:23.244Z,15.00
2018-09-01T10:44:23.053Z,15.03
2018-09-01T10:45:22.960Z,15.11
2018-09-01T10:46:22.921Z,15.07
2018-09-01T10:47:22.799Z,15.07
2018-09-01T10:48:22.689Z,15.11
2018-09-01T10:49:22.596Z,15.11
2018-09-01T10:50:22.629Z,15.05
2018-09-01T10:51:22.452Z,15.18
2018-09-01T10:52:22.342Z,15.09
2018-09-01T10:53:22.231Z,15.05
2018-09-01T10:54:22.141Z,15.07
2018-09-01T10:55:22.049Z,15.11
2018-09-01T10:56:21.959Z,15.13
2018-09-01T10:57:21.881Z,15.07
2018-09-01T10:58:21.777Z,14.95
2018-09-01T10:59:21.724Z,15.05
2018-09-01T11:00:21.594Z,15.04
2018-09-01T11:01:21.502Z,14.95
2018-09-01T11:02:21.445Z,14.93
2018-09-01T11:03:21.319Z,14.94
2018-09-01T11:04:21.228Z,14.86
2018-09-01T11:05:21.139Z,14.94
2018-09-01T11:06:21.048Z,14.86
2018-09-01T11:07:20.972Z,14.78
2018-09-01T11:08:20.862Z,14.82
2018-09-01T11:09:20.771Z,14.80
2018-09-01T11:10:20.683Z,14.75
2018-09-01T11:11:20.615Z,14.75
2018-09-01T11:12:20.516Z,14.85
2018-09-01T11:13:20.409Z,14.80
2018-09-01T11:14:20.318Z,14.86
2018-09-01T11:15:20.225Z,14.80
2018-09-01T11:16:20.135Z,14.79
2018-09-01T11:17:20.080Z,14.74
2018-09-01T11:18:19.952Z,14.79
2018-09-01T11:19:19.860Z,14.69
2018-09-01T11:20:19.816Z,14.78
2018-09-01T11:21:19.678Z,14.78
2018-09-01T11:22:19.608Z,14.64
2018-09-01T11:23:19.501Z,14.61
2018-09-01T11:24:19.403Z,14.59
2018-09-01T11:25:19.312Z,14.54
2018-09-01T11:26:19.224Z,14.53
2018-09-01T11:27:19.163Z,14.38
2018-09-01T11:28:19.035Z,14.44
2018-09-01T11:29:18.945Z,14.38
2018-09-01T11:30:18.856Z,14.48
2018-09-01T11:31:18.763Z,14.35
2018-09-01T11:32:18.690Z,14.45
2018-09-01T11:33:18.579Z,14.35
2018-09-01T11:34:18.491Z,14.42
2018-09-01T11:35:18.396Z,14.42
2018-09-01T11:36:18.305Z,14.44
2018-09-01T11:37:18.232Z,14.44
2018-09-01T11:38:18.121Z,14.41
2018-09-01T11:39:18.035Z,14.46
2018-09-01T11:40:17.954Z,14.45
2018-09-01T11:41:17.847Z,14.45
2018-09-01T11:42:17.794Z,14.44
2018-09-01T11:43:17.755Z,14.42
2018-09-01T11:44:17.571Z,14.36
2018-09-01T11:45:17.478Z,14.48
2018-09-01T11:46:17.390Z,14.41
2018-09-01T11:47:17.313Z,14.39
2018-09-01T11:48:17.206Z,14.41
2018-09-01T11:49:17.112Z,14.39
2018-09-01T11:50:17.023Z,14.39
2018-09-01T11:51:16.929Z,14.31
2018-09-01T11:52:16.854Z,14.35
2018-09-01T11:53:16.821Z,14.26
2018-09-01T11:54:16.663Z,14.31
2018-09-01T11:55:16.566Z,14.23
2018-09-01T11:56:16.471Z,14.20
2018-09-01T11:57:16.398Z,14.29
2018-09-01T11:58:16.289Z,14.29
2018-09-01T11:59:16.195Z,14.19
2018-09-01T12:00:16.105Z,14.30
2018-09-01T12:01:16.022Z,14.31
2018-09-01T12:02:15.988Z,14.31
2018-09-01T12:03:15.828Z,14.31
2018-09-01T12:04:15.738Z,14.30
2018-09-01T12:05:15.648Z,14.29
2018-09-01T12:06:15.553Z,14.34
2018-09-01T12:07:15.476Z,14.35
2018-09-01T12:08:15.368Z,14.31
2018-09-01T12:09:15.334Z,14.34
2018-09-01T12:10:15.186Z,14.27
2018-09-01T12:11:15.095Z,14.38
2018-09-01T12:12:15.021Z,14.27
2018-09-01T12:13:14.911Z,14.23
2018-09-01T12:14:14.830Z,14.20
2018-09-01T12:15:14.730Z,14.38
2018-09-01T12:16:14.634Z,14.27
2018-09-01T12:17:14.561Z,14.34
2018-09-01T12:18:14.452Z,14.21
2018-09-01T12:19:14.359Z,14.23
2018-09-01T12:20:14.268Z,14.23
2018-09-01T12:21:14.180Z,14.19
2018-09-01T12:22:14.112Z,14.20
2018-09-01T12:23:13.993Z,14.21
2018-09-01T12:24:13.916Z,14.23
2018-09-01T12:25:13.808Z,14.21
2018-09-01T12:26:13.715Z,14.26
2018-09-01T12:27:13.643Z,14.34
2018-09-01T12:28:13.882Z,14.30
2018-09-01T12:29:13.442Z,14.34
2018-09-01T12:30:13.349Z,14.41
2018-09-01T12:31:13.262Z,14.35
2018-09-01T12:32:13.169Z,14.36
2018-09-01T12:33:13.089Z,14.21
2018-09-01T12:34:12.994Z,14.21
2018-09-01T12:35:13.046Z,14.19
2018-09-01T12:36:12.841Z,14.21
2018-09-01T12:37:12.711Z,14.34
2018-09-01T12:38:12.633Z,14.34
2018-09-01T12:39:12.523Z,14.34
2018-09-01T12:40:12.430Z,14.36
2018-09-01T12:41:12.345Z,14.31
2018-09-01T12:42:12.483Z,14.30
2018-09-01T12:43:12.174Z,14.34
2018-09-01T12:44:12.066Z,14.30
2018-09-01T12:45:11.972Z,14.34
2018-09-01T12:46:11.881Z,14.35
2018-09-01T12:47:11.789Z,14.34
2018-09-01T12:48:11.709Z,14.38
2018-09-01T12:49:11.709Z,14.38
2018-09-01T12:50:11.518Z,14.42
2018-09-01T12:51:11.417Z,14.36